createdAt,value
2023-03-15T00:00:10.537Z,97642.79
2023-03-15T00:02:58.756Z,97651.34
2023-03-15T00:05:27.201Z,97656.15
2023-03-15T00:07:55.545Z,97661.70
2023-03-15T00:10:23.880Z,97666.27
2023-03-15T00:12:52.318Z,97674.20
2023-03-15T00:15:20.672Z,97683.84
2023-03-15T00:17:49.083Z,97691.76
2023-03-15T00:20:19.692Z,97696.00
2023-03-15T00:22:48.050Z,97698.49
2023-03-15T00:25:16.491Z,97703.89
2023-03-15T00:27:44.904Z,97715.73
2023-03-15T00:30:13.558Z,97722.48
2023-03-15T00:32:42.698Z,97730.77
2023-03-15T00:35:13.172Z,97732.73
2023-03-15T00:37:41.582Z,97739.42
2023-03-15T00:40:10.568Z,97743.77
2023-03-15T00:42:40.036Z,97751.14
2023-03-15T00:45:08.843Z,97753.77
2023-03-15T00:47:37.258Z,97763.48
2023-03-15T00:50:05.816Z,97761.80
2023-03-15T00:52:36.361Z,97769.48
2023-03-15T00:55:06.291Z,97771.57
2023-03-15T00:57:34.977Z,97770.29
2023-03-15T01:00:05.216Z,97780.33
2023-03-15T01:02:34.345Z,97796.98
2023-03-15T01:05:02.893Z,97807.54
2023-03-15T01:07:33.695Z,97817.71
2023-03-15T01:10:03.365Z,97822.86
2023-03-15T01:12:35.049Z,97839.83
2023-03-15T01:15:06.991Z,97856.61
2023-03-15T01:17:35.320Z,97862.22
2023-03-15T01:20:05.660Z,97866.04
2023-03-15T01:22:33.959Z,97875.17
2023-03-15T01:25:02.289Z,97884.83
2023-03-15T01:27:30.616Z,97892.39
2023-03-15T01:29:58.857Z,97895.60
2023-03-15T01:32:27.937Z,97903.21
2023-03-15T01:34:57.435Z,97921.18
2023-03-15T01:37:26.692Z,97929.09
2023-03-15T01:39:55.618Z,97935.50
2023-03-15T01:42:24.085Z,97942.48
2023-03-15T01:45:00.064Z,97952.67
2023-03-15T01:47:29.026Z,97960.63
2023-03-15T01:50:08.174Z,97966.45
2023-03-15T01:52:41.457Z,97973.31
2023-03-15T01:55:21.035Z,97987.56
2023-03-15T01:58:10.523Z,98002.66
2023-03-15T02:00:42.790Z,98008.52
2023-03-15T02:03:21.582Z,98018.47
2023-03-15T02:06:04.886Z,98027.02
2023-03-15T02:08:52.428Z,98038.39
2023-03-15T02:11:24.402Z,98049.03
2023-03-15T02:13:54.497Z,98058.40
2023-03-15T02:16:24.092Z,98068.66
2023-03-15T02:19:00.110Z,98083.23
2023-03-15T02:21:46.898Z,98092.84
2023-03-15T02:24:30.812Z,98109.34
2023-03-15T02:26:59.286Z,98110.73
2023-03-15T02:29:29.194Z,98118.67
2023-03-15T02:31:58.598Z,98126.77
2023-03-15T02:34:27.026Z,98134.13
2023-03-15T02:36:55.843Z,98137.10
2023-03-15T02:39:25.603Z,98144.70
2023-03-15T02:41:57.472Z,98154.55
2023-03-15T02:44:34.161Z,98162.84
2023-03-15T02:47:33.775Z,98170.31
2023-03-15T02:50:02.215Z,98175.37
2023-03-15T02:52:30.415Z,98171.61
2023-03-15T02:54:58.644Z,98184.59
2023-03-15T02:57:27.080Z,98192.58
2023-03-15T02:59:57.109Z,98189.39
2023-03-15T03:02:25.402Z,98190.54
2023-03-15T03:04:53.926Z,98198.14
2023-03-15T03:07:22.253Z,98208.67
2023-03-15T03:09:54.608Z,98203.77
2023-03-15T03:12:23.575Z,98202.64
2023-03-15T03:14:51.788Z,98214.52
2023-03-15T03:17:23.149Z,98221.27
2023-03-15T03:19:52.108Z,98219.41
2023-03-15T03:22:24.657Z,98224.10
2023-03-15T03:24:52.904Z,98234.73
2023-03-15T03:27:21.643Z,98242.34
2023-03-15T03:29:51.187Z,98243.33
2023-03-15T03:32:19.451Z,98244.29
2023-03-15T03:34:48.483Z,98249.44
2023-03-15T03:37:18.717Z,98256.39
2023-03-15T03:40:00.291Z,98262.46
2023-03-15T03:42:28.726Z,98266.45
2023-03-15T03:44:57.148Z,98274.25
2023-03-15T03:47:26.984Z,98276.61
2023-03-15T03:49:55.268Z,98278.30
2023-03-15T03:52:23.606Z,98278.90
2023-03-15T03:54:52.938Z,98277.20
2023-03-15T03:57:21.691Z,98280.90
2023-03-15T03:59:50.211Z,98286.16
2023-03-15T04:02:18.709Z,98288.08
2023-03-15T04:04:57.284Z,98295.80
2023-03-15T04:07:25.565Z,98302.33
2023-03-15T04:09:54.378Z,98304.55
2023-03-15T04:12:22.835Z,98307.49
2023-03-15T04:14:52.942Z,98306.69
2023-03-15T04:17:23.507Z,98307.35
2023-03-15T04:19:51.835Z,98310.07
2023-03-15T04:22:26.507Z,98312.98
2023-03-15T04:25:13.233Z,98324.36
2023-03-15T04:28:04.368Z,98328.35
2023-03-15T04:31:05.187Z,98330.01
2023-03-15T04:33:33.440Z,98331.31
2023-03-15T04:36:18.961Z,98337.55
2023-03-15T04:39:10.332Z,98341.59
2023-03-15T04:41:58.073Z,98344.02
2023-03-15T04:44:42.156Z,98344.89
2023-03-15T04:47:37.164Z,98345.98
2023-03-15T04:50:30.146Z,98351.17
2023-03-15T04:53:21.315Z,98355.43
2023-03-15T04:56:04.737Z,98357.48
2023-03-15T04:58:51.043Z,98356.66
2023-03-15T05:01:42.737Z,98364.35
2023-03-15T05:04:34.003Z,98370.00
2023-03-15T05:07:23.549Z,98375.33
2023-03-15T05:10:07.259Z,98381.80
2023-03-15T05:12:41.904Z,98382.52
2023-03-15T05:15:41.081Z,98390.59
2023-03-15T05:18:18.974Z,98392.04
2023-03-15T05:21:09.006Z,98397.98
2023-03-15T05:23:44.057Z,98404.79
2023-03-15T05:26:27.661Z,98412.00
2023-03-15T05:29:13.234Z,98411.14
2023-03-15T05:32:04.954Z,98408.33
2023-03-15T05:34:45.053Z,98418.33
2023-03-15T05:37:39.747Z,98429.91
2023-03-15T05:40:37.036Z,98428.46
2023-03-15T05:43:51.207Z,98428.67
2023-03-15T05:46:33.884Z,98438.61
2023-03-15T05:49:15.648Z,98444.73
2023-03-15T05:51:51.328Z,98448.41
2023-03-15T05:54:37.173Z,98454.13
2023-03-15T05:57:24.327Z,98459.35
2023-03-15T06:00:16.602Z,98462.15
2023-03-15T06:02:48.441Z,98464.61
2023-03-15T06:05:27.113Z,98462.09
2023-03-15T06:07:56.957Z,98470.27
2023-03-15T06:10:25.271Z,98472.85
2023-03-15T06:12:55.496Z,98475.20
2023-03-15T06:15:24.238Z,98486.28
2023-03-15T06:17:53.282Z,98497.38
2023-03-15T06:20:21.668Z,98511.21
2023-03-15T06:22:50.037Z,98520.55
2023-03-15T06:25:33.146Z,98524.02
2023-03-15T06:28:01.545Z,98526.75
2023-03-15T06:30:30.040Z,98524.23
2023-03-15T06:32:59.554Z,98520.55
2023-03-15T06:35:28.209Z,98517.27
2023-03-15T06:37:56.801Z,98521.92
2023-03-15T06:40:25.303Z,98530.81
2023-03-15T06:42:54.738Z,98537.36
2023-03-15T06:45:23.256Z,98541.24
2023-03-15T06:47:51.574Z,98547.85
2023-03-15T06:50:20.230Z,98544.07
2023-03-15T06:52:49.329Z,98544.27
2023-03-15T06:55:18.594Z,98545.88
2023-03-15T06:57:47.143Z,98539.27
2023-03-15T07:00:17.365Z,98545.56
2023-03-15T07:02:45.804Z,98548.38
2023-03-15T07:05:14.891Z,98551.53
2023-03-15T07:07:43.148Z,98554.55
2023-03-15T07:10:11.722Z,98562.83
2023-03-15T07:12:40.097Z,98573.02
2023-03-15T07:15:08.935Z,98583.04
2023-03-15T07:17:37.075Z,98586.64
2023-03-15T07:20:06.214Z,98589.27
2023-03-15T07:22:34.980Z,98587.50
2023-03-15T07:25:03.399Z,98587.70
2023-03-15T07:27:31.822Z,98586.25
2023-03-15T07:30:01.198Z,98585.42
2023-03-15T07:32:32.073Z,98586.36
2023-03-15T07:35:00.854Z,98582.38
2023-03-15T07:37:29.375Z,98580.79
2023-03-15T07:40:00.614Z,98588.52
2023-03-15T07:42:29.417Z,98587.13
2023-03-15T07:45:00.750Z,98587.83
2023-03-15T07:47:29.137Z,98590.37
2023-03-15T07:49:57.501Z,98591.99
2023-03-15T07:52:26.545Z,98596.30
2023-03-15T07:54:54.968Z,98602.51
2023-03-15T07:57:23.258Z,98607.02
2023-03-15T07:59:53.523Z,98605.70
2023-03-15T08:02:22.001Z,98608.67
2023-03-15T08:04:51.549Z,98611.19
2023-03-15T08:07:19.882Z,98610.42
2023-03-15T08:09:48.736Z,98615.92
2023-03-15T08:12:17.088Z,98618.73
2023-03-15T08:14:45.472Z,98621.50
2023-03-15T08:17:16.269Z,98623.77
2023-03-15T08:19:44.999Z,98620.09
2023-03-15T08:22:13.282Z,98628.23
2023-03-15T08:24:46.135Z,98626.73
2023-03-15T08:27:15.197Z,98629.45
2023-03-15T08:29:43.585Z,98626.36
2023-03-15T08:32:13.095Z,98626.04
2023-03-15T08:34:42.370Z,98629.79
2023-03-15T08:37:11.892Z,98632.54
2023-03-15T08:39:40.597Z,98634.05
2023-03-15T08:42:09.476Z,98635.08
2023-03-15T08:44:37.908Z,98638.13
2023-03-15T08:47:06.366Z,98645.73
2023-03-15T08:49:35.415Z,98643.39
2023-03-15T08:52:04.024Z,98644.91
2023-03-15T08:54:32.732Z,98643.38
2023-03-15T08:57:01.212Z,98648.42
2023-03-15T08:59:32.158Z,98646.77
2023-03-15T09:02:02.012Z,98656.30
2023-03-15T09:04:31.230Z,98662.75
2023-03-15T09:07:00.199Z,98667.46
2023-03-15T09:09:28.493Z,98665.93
2023-03-15T09:11:56.919Z,98669.17
2023-03-15T09:14:25.344Z,98666.92
2023-03-15T09:16:53.927Z,98670.60
2023-03-15T09:19:22.218Z,98668.52
2023-03-15T09:21:51.336Z,98671.04
2023-03-15T09:24:19.666Z,98671.67
2023-03-15T09:26:47.912Z,98673.05
2023-03-15T09:29:16.292Z,98678.11
2023-03-15T09:31:44.746Z,98681.24
2023-03-15T09:34:13.209Z,98678.37
2023-03-15T09:36:41.555Z,98680.41
2023-03-15T09:39:10.008Z,98685.48
2023-03-15T09:41:45.814Z,98687.05
2023-03-15T09:44:39.075Z,98689.79
2023-03-15T09:47:10.499Z,98689.21
2023-03-15T09:50:01.355Z,98691.70
2023-03-15T09:52:33.251Z,98692.59
2023-03-15T09:55:17.092Z,98687.20
2023-03-15T09:58:03.451Z,98692.79
2023-03-15T10:00:43.785Z,98696.54
2023-03-15T10:03:54.522Z,98696.16
2023-03-15T10:06:36.513Z,98698.23
2023-03-15T10:09:18.082Z,98705.80
2023-03-15T10:11:56.963Z,98706.46
2023-03-15T10:14:30.754Z,98706.80
2023-03-15T10:16:59.388Z,98704.88
2023-03-15T10:19:45.812Z,98707.36
2023-03-15T10:22:14.059Z,98712.36
2023-03-15T10:24:54.914Z,98711.14
2023-03-15T10:27:29.522Z,98713.36
2023-03-15T10:30:00.560Z,98717.02
2023-03-15T10:32:37.561Z,98718.73
2023-03-15T10:35:15.180Z,98726.39
2023-03-15T10:37:50.044Z,98725.73
2023-03-15T10:40:49.077Z,98733.38
2023-03-15T10:43:23.280Z,98738.61
2023-03-15T10:46:22.275Z,98741.17
2023-03-15T10:49:08.304Z,98739.95
2023-03-15T10:51:43.224Z,98739.85
2023-03-15T10:54:38.403Z,98737.30
2023-03-15T10:57:14.879Z,98737.19
2023-03-15T10:59:57.787Z,98736.07
2023-03-15T11:02:26.525Z,98737.10
2023-03-15T11:05:01.510Z,98736.93
2023-03-15T11:07:30.082Z,98732.55
2023-03-15T11:10:03.639Z,98734.48
2023-03-15T11:12:35.011Z,98734.45
2023-03-15T11:15:16.353Z,98738.70
2023-03-15T11:17:48.185Z,98746.48
2023-03-15T11:20:30.982Z,98743.54
2023-03-15T11:23:00.808Z,98743.66
2023-03-15T11:25:31.941Z,98745.89
2023-03-15T11:28:01.534Z,98741.43
2023-03-15T11:30:34.319Z,98737.20
2023-03-15T11:33:08.085Z,98738.64
2023-03-15T11:35:48.322Z,98740.50
2023-03-15T11:38:44.583Z,98743.53
2023-03-15T11:41:38.929Z,98745.02
2023-03-15T11:44:44.118Z,98745.33
2023-03-15T11:47:42.941Z,98746.26
2023-03-15T11:50:15.326Z,98746.71
2023-03-15T11:53:05.529Z,98745.60
2023-03-15T11:55:37.797Z,98750.92
2023-03-15T11:58:28.436Z,98753.23
2023-03-15T12:01:10.597Z,98756.27
2023-03-15T12:03:44.496Z,98756.80
2023-03-15T12:06:24.816Z,98763.70
2023-03-15T12:09:38.235Z,98769.08
2023-03-15T12:12:28.886Z,98762.64
2023-03-15T12:15:36.017Z,98760.25
2023-03-15T12:18:16.565Z,98766.23
2023-03-15T12:21:25.326Z,98769.61
2023-03-15T12:24:32.169Z,98770.76
2023-03-15T12:27:18.263Z,98771.46
2023-03-15T12:29:59.176Z,98765.89
2023-03-15T12:32:31.434Z,98766.25
2023-03-15T12:35:16.070Z,98763.83
2023-03-15T12:37:54.003Z,98758.74
2023-03-15T12:41:03.174Z,98755.91
2023-03-15T12:43:43.443Z,98758.52
2023-03-15T12:46:55.435Z,98759.83
2023-03-15T12:49:42.868Z,98763.20
2023-03-15T12:52:10.965Z,98762.02
2023-03-15T12:54:45.214Z,98767.98
2023-03-15T12:57:18.658Z,98772.45
2023-03-15T13:00:06.447Z,98770.08
2023-03-15T13:02:43.923Z,98766.95
2023-03-15T13:05:37.565Z,98768.09
2023-03-15T13:08:08.960Z,98772.62
2023-03-15T13:11:07.703Z,98775.65
2023-03-15T13:14:03.973Z,98779.05
2023-03-15T13:16:51.131Z,98782.90
2023-03-15T13:19:26.680Z,98782.56
2023-03-15T13:22:55.900Z,98785.63
2023-03-15T13:25:39.748Z,98788.27
2023-03-15T13:28:22.572Z,98780.41
2023-03-15T13:30:55.628Z,98779.38
2023-03-15T13:33:31.769Z,98782.43
2023-03-15T13:36:16.988Z,98786.11
2023-03-15T13:38:46.782Z,98786.27
2023-03-15T13:41:29.277Z,98793.10
2023-03-15T13:44:01.130Z,98796.34
2023-03-15T13:46:30.760Z,98794.45
2023-03-15T13:49:00.768Z,98801.52
2023-03-15T13:51:33.404Z,98806.61
2023-03-15T13:54:34.451Z,98810.05
2023-03-15T13:57:07.546Z,98814.29
2023-03-15T13:59:43.034Z,98812.08
2023-03-15T14:02:16.853Z,98814.59
2023-03-15T14:05:12.775Z,98812.30
2023-03-15T14:11:31.662Z,98817.05
2023-03-15T14:14:23.409Z,98820.98
2023-03-15T14:17:04.814Z,98825.01
2023-03-15T14:19:35.602Z,98829.03
2023-03-15T14:22:17.779Z,98825.40
2023-03-15T14:24:49.512Z,98827.14
2023-03-15T14:27:26.690Z,98827.20
2023-03-15T14:30:00.393Z,98828.40
2023-03-15T14:32:31.315Z,98834.20
2023-03-15T14:35:00.339Z,98838.23
2023-03-15T14:37:47.492Z,98838.49
2023-03-15T14:40:21.405Z,98836.11
2023-03-15T14:42:51.277Z,98839.30
2023-03-15T14:45:22.447Z,98839.65
2023-03-15T14:48:06.710Z,98839.08
2023-03-15T14:50:41.376Z,98839.19
2023-03-15T14:53:15.068Z,98846.45
2023-03-15T14:55:43.460Z,98848.89
2023-03-15T14:58:17.482Z,98849.44
2023-03-15T15:00:58.329Z,98846.36
2023-03-15T15:03:32.738Z,98849.60
2023-03-15T15:06:02.659Z,98852.35
2023-03-15T15:08:32.269Z,98857.23
2023-03-15T15:11:00.699Z,98857.34
2023-03-15T15:13:30.622Z,98862.28
2023-03-15T15:15:59.082Z,98862.05
2023-03-15T15:18:31.074Z,98866.04
2023-03-15T15:21:03.072Z,98866.51
2023-03-15T15:23:39.608Z,98875.09
2023-03-15T15:26:21.140Z,98876.27
2023-03-15T15:28:50.157Z,98875.31
2023-03-15T15:31:24.086Z,98875.23
2023-03-15T15:33:53.679Z,98875.55
2023-03-15T15:36:44.057Z,98874.92
2023-03-15T15:39:22.899Z,98876.48
2023-03-15T15:41:51.466Z,98878.34
2023-03-15T15:44:22.008Z,98879.13
2023-03-15T15:46:50.252Z,98877.66
2023-03-15T15:49:19.552Z,98880.13
2023-03-15T15:51:50.131Z,98884.08
2023-03-15T15:54:22.020Z,98887.14
2023-03-15T15:56:53.789Z,98887.71
2023-03-15T15:59:25.493Z,98894.34
2023-03-15T16:02:03.241Z,98892.09
2023-03-15T16:04:32.779Z,98897.16
2023-03-15T16:07:03.645Z,98901.98
2023-03-15T16:09:37.881Z,98904.33
2023-03-15T16:12:13.696Z,98907.73
2023-03-15T16:14:44.069Z,98908.17
2023-03-15T16:17:17.292Z,98910.96
2023-03-15T16:19:45.696Z,98912.40
2023-03-15T16:22:14.663Z,98915.24
2023-03-15T16:24:45.545Z,98920.23
2023-03-15T16:27:16.211Z,98924.11
2023-03-15T16:29:50.516Z,98923.73
2023-03-15T16:32:42.818Z,98927.93
2023-03-15T16:35:15.849Z,98933.66
2023-03-15T16:37:45.745Z,98944.31
2023-03-15T16:40:26.629Z,98944.40
2023-03-15T16:42:56.578Z,98948.34
2023-03-15T16:45:25.815Z,98956.98
2023-03-15T16:47:56.569Z,98960.38
2023-03-15T16:50:25.241Z,98967.60
2023-03-15T16:52:57.042Z,98972.92
2023-03-15T16:55:28.889Z,98977.67
2023-03-15T16:57:57.267Z,98983.48
2023-03-15T17:00:25.784Z,98983.36
2023-03-15T17:02:54.972Z,98990.44
2023-03-15T17:05:24.923Z,98991.40
2023-03-15T17:07:54.951Z,98991.70
2023-03-15T17:10:27.567Z,98993.44
2023-03-15T17:12:58.442Z,98997.11
2023-03-15T17:15:28.646Z,98995.38
2023-03-15T17:17:57.891Z,99001.02
2023-03-15T17:20:28.558Z,99004.98
2023-03-15T17:23:04.259Z,99010.80
2023-03-15T17:25:35.328Z,99010.41
2023-03-15T17:28:05.036Z,99014.20
2023-03-15T17:30:36.887Z,99018.67
2023-03-15T17:33:06.291Z,99025.83
2023-03-15T17:35:47.981Z,99026.88
2023-03-15T17:38:19.659Z,99029.34
2023-03-15T17:40:48.223Z,99034.25
2023-03-15T17:43:17.486Z,99035.09
2023-03-15T17:45:45.777Z,99041.92
2023-03-15T17:48:14.031Z,99045.92
2023-03-15T17:50:44.512Z,99047.85
2023-03-15T17:53:18.798Z,99054.14
2023-03-15T17:55:48.166Z,99048.83
2023-03-15T17:58:20.188Z,99050.89
2023-03-15T18:00:51.292Z,99053.02
2023-03-15T18:03:19.954Z,99058.44
2023-03-15T18:05:48.477Z,99058.23
2023-03-15T18:08:21.197Z,99056.66
2023-03-15T18:10:51.719Z,99056.13
2023-03-15T18:13:21.548Z,99054.85
2023-03-15T18:15:51.406Z,99054.82
2023-03-15T18:18:20.339Z,99053.33
2023-03-15T18:20:49.633Z,99056.92
2023-03-15T18:23:19.463Z,99055.27
2023-03-15T18:25:48.506Z,99058.16
2023-03-15T18:28:16.858Z,99055.39
2023-03-15T18:30:45.649Z,99054.62
2023-03-15T18:33:15.719Z,99055.25
2023-03-15T18:35:44.260Z,99051.83
2023-03-15T18:38:12.819Z,99052.99
2023-03-15T18:40:41.284Z,99055.21
2023-03-15T18:43:13.755Z,99056.54
2023-03-15T18:45:42.381Z,99050.88
2023-03-15T18:48:11.092Z,99044.54
2023-03-15T18:50:39.312Z,99042.58
2023-03-15T18:53:07.726Z,99045.71
2023-03-15T18:55:36.576Z,99049.36
2023-03-15T18:58:08.963Z,99053.00
2023-03-15T19:00:37.850Z,99052.63
2023-03-15T19:03:07.336Z,99052.09
2023-03-15T19:05:38.192Z,99051.88
2023-03-15T19:08:06.621Z,99056.41
2023-03-15T19:10:34.948Z,99055.84
2023-03-15T19:13:04.721Z,99055.92
2023-03-15T19:15:33.695Z,99058.31
2023-03-15T19:18:03.975Z,99064.20
2023-03-15T19:20:32.384Z,99069.84
2023-03-15T19:23:01.069Z,99072.55
2023-03-15T19:25:32.638Z,99078.89
2023-03-15T19:28:00.876Z,99081.23
2023-03-15T19:30:29.359Z,99084.04
2023-03-15T19:32:59.599Z,99087.03
2023-03-15T19:35:28.028Z,99084.06
2023-03-15T19:37:57.202Z,99083.38
2023-03-15T19:40:28.908Z,99087.11
2023-03-15T19:42:57.287Z,99089.11
2023-03-15T19:45:25.865Z,99092.96
2023-03-15T19:47:54.137Z,99099.13
2023-03-15T19:50:22.910Z,99100.91
2023-03-15T19:52:52.467Z,99107.30
2023-03-15T19:55:22.174Z,99111.19
2023-03-15T19:57:50.454Z,99114.04
2023-03-15T20:00:20.099Z,99113.73
2023-03-15T20:02:49.168Z,99115.67
2023-03-15T20:05:19.877Z,99118.20
2023-03-15T20:07:51.332Z,99119.83
2023-03-15T20:10:21.762Z,99123.35
2023-03-15T20:12:50.323Z,99120.42
2023-03-15T20:15:19.680Z,99121.65
2023-03-15T20:17:48.516Z,99125.53
2023-03-15T20:20:17.256Z,99125.27
2023-03-15T20:22:45.867Z,99123.23
2023-03-15T20:25:20.151Z,99123.98
2023-03-15T20:27:48.660Z,99122.29
2023-03-15T20:30:17.510Z,99122.95
2023-03-15T20:32:47.264Z,99122.02
2023-03-15T20:35:16.629Z,99124.27
2023-03-15T20:37:45.065Z,99128.25
2023-03-15T20:40:15.609Z,99130.75
2023-03-15T20:42:50.074Z,99132.36
2023-03-15T20:45:18.303Z,99132.23
2023-03-15T20:47:46.584Z,99134.49
2023-03-15T20:50:14.817Z,99138.51
2023-03-15T20:52:43.443Z,99133.91
2023-03-15T20:55:12.475Z,99132.42
2023-03-15T20:57:44.429Z,99133.10
2023-03-15T21:00:18.909Z,99137.89
2023-03-15T21:02:47.923Z,99140.80
2023-03-15T21:05:17.219Z,99146.33
2023-03-15T21:07:46.277Z,99146.58
2023-03-15T21:10:14.963Z,99148.11
2023-03-15T21:12:46.670Z,99146.70
2023-03-15T21:15:18.943Z,99152.09
2023-03-15T21:17:50.989Z,99156.84
2023-03-15T21:20:19.421Z,99157.73
2023-03-15T21:22:47.759Z,99157.04
2023-03-15T21:25:16.964Z,99159.33
2023-03-15T21:27:45.862Z,99157.47
2023-03-15T21:30:14.540Z,99161.03
2023-03-15T21:32:43.408Z,99167.92
2023-03-15T21:35:12.562Z,99170.60
2023-03-15T21:37:40.874Z,99172.08
2023-03-15T21:40:11.728Z,99170.10
2023-03-15T21:42:40.299Z,99174.02
2023-03-15T21:45:09.687Z,99173.16
2023-03-15T21:47:38.121Z,99171.97
2023-03-15T21:50:07.118Z,99173.92
2023-03-15T21:52:35.357Z,99174.78
2023-03-15T21:55:04.937Z,99173.79
2023-03-15T21:57:33.861Z,99172.05
2023-03-15T22:00:02.453Z,99174.54
2023-03-15T22:02:39.804Z,99174.85
2023-03-15T22:05:09.418Z,99179.39
2023-03-15T22:07:42.015Z,99178.70
2023-03-15T22:10:11.666Z,99181.32
2023-03-15T22:12:39.971Z,99185.90
2023-03-15T22:15:09.086Z,99184.92
2023-03-15T22:17:37.634Z,99189.67
2023-03-15T22:20:14.428Z,99191.77
2023-03-15T22:22:47.056Z,99195.52
2023-03-15T22:25:15.684Z,99195.38
2023-03-15T22:27:44.167Z,99199.58
2023-03-15T22:30:14.005Z,99201.46
2023-03-15T22:32:44.314Z,99200.73
2023-03-15T22:35:18.060Z,99205.07
2023-03-15T22:37:46.507Z,99207.46
2023-03-15T22:40:15.860Z,99204.02
2023-03-15T22:42:44.379Z,99205.35
2023-03-15T22:45:12.588Z,99206.12
2023-03-15T22:47:40.971Z,99207.05
2023-03-15T22:50:13.555Z,99208.69
2023-03-15T22:52:42.873Z,99215.58
2023-03-15T22:55:12.004Z,99216.31
2023-03-15T22:57:40.496Z,99215.30
2023-03-15T23:00:13.858Z,99219.63
2023-03-15T23:02:44.253Z,99221.16
2023-03-15T23:05:13.528Z,99224.98
2023-03-15T23:07:41.870Z,99223.76
2023-03-15T23:10:11.835Z,99227.78
2023-03-15T23:12:40.129Z,99229.20
2023-03-15T23:15:09.249Z,99232.02
2023-03-15T23:17:37.517Z,99234.19
2023-03-15T23:20:07.395Z,99237.96
2023-03-15T23:22:35.758Z,99244.19
2023-03-15T23:25:04.558Z,99251.66
2023-03-15T23:27:32.794Z,99251.47
2023-03-15T23:30:01.132Z,99250.66
2023-03-15T23:32:29.387Z,99251.55
2023-03-15T23:34:57.884Z,99251.00
2023-03-15T23:37:26.158Z,99248.55
2023-03-15T23:39:54.781Z,99255.32
2023-03-15T23:42:26.145Z,99257.03
2023-03-15T23:44:55.601Z,99262.41
2023-03-15T23:47:25.934Z,99263.80
2023-03-15T23:49:54.105Z,99263.59
2023-03-15T23:52:25.465Z,99261.94
2023-03-15T23:54:54.237Z,99260.46
2023-03-15T23:57:22.763Z,99263.69
2023-03-15T23:59:51.139Z,99266.80
